sensor_id;sensor_type;location;lat;lon;timestamp;pressure;altitude;pressure_sealevel;temperature;humidity
13934;BME280;7039;52.168;9.866;2023-02-21T01:03:44;100676.41;;;9.00;100.00
13934;BME280;7039;52.168;9.866;2023-02-21T01:06:36;100681.25;;;8.87;100.00
13934;BME280;7039;52.168;9.866;2023-02-21T01:12:40;100680.69;;;9.01;100.00
13934;BME280;7039;52.168;9.866;2023-02-21T01:15:57;100683.59;;;9.15;100.00
13934;BME280;7039;52.168;9.866;2023-02-21T01:53:19;100698.97;;;8.99;100.00
13934;BME280;7039;52.168;9.866;2023-02-21T01:59:34;100693.53;;;9.26;100.00
13934;BME280;7039;52.168;9.866;2023-02-21T02:02:30;100685.28;;;8.94;100.00
13934;BME280;7039;52.168;9.866;2023-02-21T02:08:11;100687.78;;;8.97;100.00
13934;BME280;7039;52.168;9.866;2023-02-21T02:14:45;100691.00;;;9.04;100.00
13934;BME280;7039;52.168;9.866;2023-02-21T02:47:03;100690.25;;;9.01;100.00
13934;BME280;7039;52.168;9.866;2023-02-21T02:49:34;100699.59;;;9.06;100.00
13934;BME280;7039;52.168;9.866;2023-02-21T02:52:33;100691.81;;;9.05;100.00
13934;BME280;7039;52.168;9.866;2023-02-21T03:00:58;100695.03;;;9.11;100.00
13934;BME280;7039;52.168;9.866;2023-02-21T03:07:41;100692.00;;;9.00;100.00
13934;BME280;7039;52.168;9.866;2023-02-21T03:10:39;100685.13;;;9.19;100.00
13934;BME280;7039;52.168;9.866;2023-02-21T03:23:21;100700.66;;;9.23;100.00
13934;BME280;7039;52.168;9.866;2023-02-21T03:26:53;100684.69;;;9.10;100.00
13934;BME280;7039;52.168;9.866;2023-02-21T03:29:26;100682.69;;;9.16;100.00
13934;BME280;7039;52.168;9.866;2023-02-21T03:32:28;100680.72;;;9.22;100.00
13934;BME280;7039;52.168;9.866;2023-02-21T03:44:05;100674.53;;;9.24;100.00
13934;BME280;7039;52.168;9.866;2023-02-21T03:46:35;100666.88;;;9.21;100.00
13934;BME280;7039;52.168;9.866;2023-02-21T03:49:06;100665.47;;;9.12;100.00
13934;BME280;7039;52.168;9.866;2023-02-21T04:55:01;100632.06;;;9.24;100.00
13934;BME280;7039;52.168;9.866;2023-02-21T05:04:44;100629.06;;;9.33;99.91
13934;BME280;7039;52.168;9.866;2023-02-21T05:10:49;100631.16;;;9.45;100.00
13934;BME280;7039;52.168;9.866;2023-02-21T05:58:55;100650.00;;;9.09;100.00
13934;BME280;7039;52.168;9.866;2023-02-21T06:01:39;100666.72;;;9.24;100.00
13934;BME280;7039;52.168;9.866;2023-02-21T06:04:31;100661.03;;;9.16;100.00
13934;BME280;7039;52.168;9.866;2023-02-21T06:07:07;100664.88;;;9.06;100.00
13934;BME280;7039;52.168;9.866;2023-02-21T06:10:00;100680.66;;;9.23;100.00
13934;BME280;7039;52.168;9.866;2023-02-21T06:13:02;100669.72;;;9.15;100.00
13934;BME280;7039;52.168;9.866;2023-02-21T06:15:30;100673.69;;;9.24;100.00
13934;BME280;7039;52.168;9.866;2023-02-21T06:18:26;100666.16;;;9.17;100.00
13934;BME280;7039;52.168;9.866;2023-02-21T06:20:53;100668.94;;;9.13;100.00
13934;BME280;7039;52.168;9.866;2023-02-21T06:23:30;100665.88;;;9.03;100.00
13934;BME280;7039;52.168;9.866;2023-02-21T06:26:16;100668.69;;;9.19;100.00
13934;BME280;7039;52.168;9.866;2023-02-21T07:31:53;100719.63;;;9.67;98.80
13934;BME280;7039;52.168;9.866;2023-02-21T07:35:24;100725.22;;;9.78;98.48
13934;BME280;7039;52.168;9.866;2023-02-21T07:38:09;100716.38;;;9.62;98.51
13934;BME280;7039;52.168;9.866;2023-02-21T07:44:53;100724.16;;;9.41;99.45
13934;BME280;7039;52.168;9.866;2023-02-21T07:51:32;100739.69;;;9.65;100.00
13934;BME280;7039;52.168;9.866;2023-02-21T07:54:25;100736.56;;;9.57;100.00
13934;BME280;7039;52.168;9.866;2023-02-21T08:00:32;100743.06;;;9.67;100.00
13934;BME280;7039;52.168;9.866;2023-02-21T08:04:31;100751.00;;;9.85;99.61
13934;BME280;7039;52.168;9.866;2023-02-21T08:14:44;100754.63;;;9.60;99.94
13934;BME280;7039;52.168;9.866;2023-02-21T08:28:23;100759.41;;;9.71;98.82
13934;BME280;7039;52.168;9.866;2023-02-21T08:31:00;100765.41;;;9.73;98.63
13934;BME280;7039;52.168;9.866;2023-02-21T08:34:08;100764.22;;;9.80;98.65
13934;BME280;7039;52.168;9.866;2023-02-21T08:37:02;100770.16;;;9.83;98.01
13934;BME280;7039;52.168;9.866;2023-02-21T08:43:50;100770.16;;;9.83;97.40
13934;BME280;7039;52.168;9.866;2023-02-21T08:54:53;100789.19;;;10.06;96.57
13934;BME280;7039;52.168;9.866;2023-02-21T09:14:40;100783.19;;;10.45;94.51
13934;BME280;7039;52.168;9.866;2023-02-21T09:17:32;100785.69;;;10.47;95.19
13934;BME280;7039;52.168;9.866;2023-02-21T09:20:10;100765.97;;;10.20;95.47
13934;BME280;7039;52.168;9.866;2023-02-21T09:23:23;100782.03;;;10.51;94.90
13934;BME280;7039;52.168;9.866;2023-02-21T09:26:06;100762.66;;;10.37;94.61
13934;BME280;7039;52.168;9.866;2023-02-21T09:28:37;100771.53;;;10.33;94.39
13934;BME280;7039;52.168;9.866;2023-02-21T09:31:34;100770.41;;;10.18;96.24
13934;BME280;7039;52.168;9.866;2023-02-21T09:34:16;100773.53;;;10.27;95.65
13934;BME280;7039;52.168;9.866;2023-02-21T09:40:34;100765.44;;;10.12;95.44
13934;BME280;7039;52.168;9.866;2023-02-21T09:43:25;100773.16;;;10.36;95.16
13934;BME280;7039;52.168;9.866;2023-02-21T09:46:05;100769.97;;;10.29;96.03
13934;BME280;7039;52.168;9.866;2023-02-21T09:52:43;100780.78;;;10.20;96.22
13934;BME280;7039;52.168;9.866;2023-02-21T09:56:17;100769.06;;;10.30;96.21
13934;BME280;7039;52.168;9.866;2023-02-21T09:59:08;100775.69;;;10.37;96.10
13934;BME280;7039;52.168;9.866;2023-02-21T10:01:46;100779.78;;;10.43;95.95
13934;BME280;7039;52.168;9.866;2023-02-21T10:04:20;100777.31;;;10.40;95.64
13934;BME280;7039;52.168;9.866;2023-02-21T10:06:51;100774.50;;;10.44;95.44
13934;BME280;7039;52.168;9.866;2023-02-21T10:09:32;100775.00;;;10.53;95.64
13934;BME280;7039;52.168;9.866;2023-02-21T10:12:09;100780.47;;;10.47;95.80
13934;BME280;7039;52.168;9.866;2023-02-21T10:15:07;100783.97;;;10.66;94.73
13934;BME280;7039;52.168;9.866;2023-02-21T10:17:45;100778.59;;;10.50;94.69
13934;BME280;7039;52.168;9.866;2023-02-21T10:20:21;100776.41;;;10.60;93.28
13934;BME280;7039;52.168;9.866;2023-02-21T10:22:53;100790.91;;;10.47;94.15
13934;BME280;7039;52.168;9.866;2023-02-21T10:25:24;100784.69;;;10.70;93.63
13934;BME280;7039;52.168;9.866;2023-02-21T10:27:54;100789.91;;;10.89;92.60
13934;BME280;7039;52.168;9.866;2023-02-21T10:30:26;100797.16;;;10.82;92.01
13934;BME280;7039;52.168;9.866;2023-02-21T10:32:54;100794.84;;;10.95;91.63
13934;BME280;7039;52.168;9.866;2023-02-21T10:35:21;100787.00;;;10.95;91.18
13934;BME280;7039;52.168;9.866;2023-02-21T10:37:50;100791.94;;;11.01;91.61
13934;BME280;7039;52.168;9.866;2023-02-21T10:40:27;100805.97;;;11.17;91.04
13934;BME280;7039;52.168;9.866;2023-02-21T10:42:59;100800.03;;;11.50;90.62
13934;BME280;7039;52.168;9.866;2023-02-21T10:45:32;100796.50;;;11.51;89.87
13934;BME280;7039;52.168;9.866;2023-02-21T10:48:00;100793.44;;;11.24;89.84
13934;BME280;7039;52.168;9.866;2023-02-21T10:50:36;100787.59;;;11.38;89.31
13934;BME280;7039;52.168;9.866;2023-02-21T10:53:03;100794.72;;;11.34;89.59
13934;BME280;7039;52.168;9.866;2023-02-21T10:55:31;100787.97;;;11.47;88.73
13934;BME280;7039;52.168;9.866;2023-02-21T10:58:05;100797.94;;;11.39;89.04
13934;BME280;7039;52.168;9.866;2023-02-21T11:00:34;100793.66;;;11.19;90.35
13934;BME280;7039;52.168;9.866;2023-02-21T11:03:03;100786.66;;;11.39;90.43
13934;BME280;7039;52.168;9.866;2023-02-21T11:05:31;100790.94;;;11.22;90.53
13934;BME280;7039;52.168;9.866;2023-02-21T11:08:01;100796.66;;;11.48;89.74
13934;BME280;7039;52.168;9.866;2023-02-21T11:10:33;100790.78;;;11.25;90.54
13934;BME280;7039;52.168;9.866;2023-02-21T11:13:05;100795.81;;;11.47;90.12
13934;BME280;7039;52.168;9.866;2023-02-21T11:15:32;100788.00;;;11.28;89.83
13934;BME280;7039;52.168;9.866;2023-02-21T11:18:12;100804.88;;;11.58;90.03
13934;BME280;7039;52.168;9.866;2023-02-21T11:20:38;100798.75;;;11.59;88.99
13934;BME280;7039;52.168;9.866;2023-02-21T11:23:17;100792.63;;;11.77;88.08
13934;BME280;7039;52.168;9.866;2023-02-21T11:25:46;100795.84;;;11.82;87.93
13934;BME280;7039;52.168;9.866;2023-02-21T11:28:19;100785.44;;;11.81;88.63
13934;BME280;7039;52.168;9.866;2023-02-21T11:30:49;100786.53;;;11.59;88.37
13934;BME280;7039;52.168;9.866;2023-02-21T11:33:19;100782.31;;;11.74;88.75
13934;BME280;7039;52.168;9.866;2023-02-21T11:35:47;100793.97;;;11.67;87.43
13934;BME280;7039;52.168;9.866;2023-02-21T11:38:32;100796.03;;;11.60;88.06
13934;BME280;7039;52.168;9.866;2023-02-21T11:41:03;100786.72;;;11.91;88.41
13934;BME280;7039;52.168;9.866;2023-02-21T11:43:44;100803.44;;;11.87;87.23
13934;BME280;7039;52.168;9.866;2023-02-21T11:46:33;100790.53;;;11.66;87.83
13934;BME280;7039;52.168;9.866;2023-02-21T11:49:07;100789.47;;;12.05;86.64
13934;BME280;7039;52.168;9.866;2023-02-21T11:51:42;100781.25;;;11.96;86.92
13934;BME280;7039;52.168;9.866;2023-02-21T11:54:11;100788.09;;;11.98;86.36
13934;BME280;7039;52.168;9.866;2023-02-21T11:56:46;100793.47;;;12.12;85.81
13934;BME280;7039;52.168;9.866;2023-02-21T11:59:34;100782.50;;;12.06;85.00
13934;BME280;7039;52.168;9.866;2023-02-21T12:02:25;100784.47;;;11.83;85.74
13934;BME280;7039;52.168;9.866;2023-02-21T12:05:05;100785.97;;;11.89;85.90
13934;BME280;7039;52.168;9.866;2023-02-21T12:07:40;100792.44;;;11.80;85.30
13934;BME280;7039;52.168;9.866;2023-02-21T12:10:23;100769.69;;;12.17;84.30
13934;BME280;7039;52.168;9.866;2023-02-21T12:12:59;100778.31;;;12.52;83.91
13934;BME280;7039;52.168;9.866;2023-02-21T12:15:42;100774.88;;;12.84;81.90
13934;BME280;7039;52.168;9.866;2023-02-21T12:18:30;100780.88;;;13.49;80.68
13934;BME280;7039;52.168;9.866;2023-02-21T12:21:23;100781.78;;;13.48;79.06
13934;BME280;7039;52.168;9.866;2023-02-21T12:23:56;100773.03;;;13.33;79.32
13934;BME280;7039;52.168;9.866;2023-02-21T12:26:48;100762.03;;;13.43;78.36
13934;BME280;7039;52.168;9.866;2023-02-21T12:29:29;100778.59;;;13.43;79.36
13934;BME280;7039;52.168;9.866;2023-02-21T12:32:23;100765.81;;;13.21;78.99
13934;BME280;7039;52.168;9.866;2023-02-21T12:35:03;100763.38;;;13.18;78.93
13934;BME280;7039;52.168;9.866;2023-02-21T12:37:37;100767.00;;;13.47;78.48
13934;BME280;7039;52.168;9.866;2023-02-21T12:40:19;100774.41;;;13.55;76.64
13934;BME280;7039;52.168;9.866;2023-02-21T12:43:00;100758.16;;;13.02;77.48
13934;BME280;7039;52.168;9.866;2023-02-21T12:45:47;100761.56;;;12.88;79.24
13934;BME280;7039;52.168;9.866;2023-02-21T12:48:18;100756.63;;;12.98;78.90
13934;BME280;7039;52.168;9.866;2023-02-21T12:50:49;100754.28;;;12.93;78.44
13934;BME280;7039;52.168;9.866;2023-02-21T12:53:19;100749.72;;;12.65;78.90
13934;BME280;7039;52.168;9.866;2023-02-21T12:55:53;100764.53;;;12.49;79.34
13934;BME280;7039;52.168;9.866;2023-02-21T12:58:24;100750.47;;;12.51;79.07
13934;BME280;7039;52.168;9.866;2023-02-21T13:00:57;100746.06;;;12.52;79.32
13934;BME280;7039;52.168;9.866;2023-02-21T13:03:39;100748.06;;;12.31;80.54
13934;BME280;7039;52.168;9.866;2023-02-21T13:06:10;100739.97;;;12.36;80.19
13934;BME280;7039;52.168;9.866;2023-02-21T13:08:50;100747.97;;;12.32;79.83
13934;BME280;7039;52.168;9.866;2023-02-21T13:11:21;100732.94;;;12.20;80.96
13934;BME280;7039;52.168;9.866;2023-02-21T13:13:50;100740.50;;;12.09;81.39
13934;BME280;7039;52.168;9.866;2023-02-21T13:16:18;100741.88;;;11.99;82.54
13934;BME280;7039;52.168;9.866;2023-02-21T13:18:48;100733.50;;;12.09;83.21
13934;BME280;7039;52.168;9.866;2023-02-21T13:21:27;100737.81;;;12.10;81.88
13934;BME280;7039;52.168;9.866;2023-02-21T13:24:19;100731.59;;;11.96;82.90
13934;BME280;7039;52.168;9.866;2023-02-21T13:27:19;100734.81;;;11.83;82.03
13934;BME280;7039;52.168;9.866;2023-02-21T13:30:00;100728.59;;;11.68;82.51
13934;BME280;7039;52.168;9.866;2023-02-21T13:32:36;100729.50;;;12.02;82.26
13934;BME280;7039;52.168;9.866;2023-02-21T13:35:07;100736.06;;;11.94;82.65
13934;BME280;7039;52.168;9.866;2023-02-21T13:37:35;100724.13;;;11.70;83.02
13934;BME280;7039;52.168;9.866;2023-02-21T13:40:17;100732.28;;;11.82;82.09
13934;BME280;7039;52.168;9.866;2023-02-21T13:42:47;100731.28;;;11.67;82.58
13934;BME280;7039;52.168;9.866;2023-02-21T13:45:16;100730.75;;;11.78;82.11
13934;BME280;7039;52.168;9.866;2023-02-21T13:50:58;100717.19;;;11.87;81.68
13934;BME280;7039;52.168;9.866;2023-02-21T13:53:27;100710.81;;;12.10;81.86
13934;BME280;7039;52.168;9.866;2023-02-21T13:56:38;100718.16;;;12.19;80.93
13934;BME280;7039;52.168;9.866;2023-02-21T13:59:30;100723.34;;;12.37;80.91
13934;BME280;7039;52.168;9.866;2023-02-21T14:02:17;100722.53;;;12.19;81.57
13934;BME280;7039;52.168;9.866;2023-02-21T14:05:02;100730.41;;;12.19;80.93
13934;BME280;7039;52.168;9.866;2023-02-21T14:07:53;100719.13;;;12.01;81.01
13934;BME280;7039;52.168;9.866;2023-02-21T14:10:29;100731.28;;;12.02;81.30
13934;BME280;7039;52.168;9.866;2023-02-21T14:13:00;100719.16;;;12.17;80.54
13934;BME280;7039;52.168;9.866;2023-02-21T14:15:42;100730.56;;;12.16;81.53
13934;BME280;7039;52.168;9.866;2023-02-21T14:18:19;100722.13;;;12.10;81.95
13934;BME280;7039;52.168;9.866;2023-02-21T14:20:49;100723.06;;;12.25;81.08
13934;BME280;7039;52.168;9.866;2023-02-21T14:23:20;100728.56;;;12.37;80.90
13934;BME280;7039;52.168;9.866;2023-02-21T14:25:56;100718.00;;;11.89;83.02
13934;BME280;7039;52.168;9.866;2023-02-21T14:28:49;100716.66;;;11.80;82.49
13934;BME280;7039;52.168;9.866;2023-02-21T14:31:50;100712.38;;;11.79;83.09
13934;BME280;7039;52.168;9.866;2023-02-21T14:34:22;100716.94;;;11.58;84.23
13934;BME280;7039;52.168;9.866;2023-02-21T14:36:50;100714.22;;;11.60;84.24
13934;BME280;7039;52.168;9.866;2023-02-21T14:39:21;100710.84;;;11.75;83.40
13934;BME280;7039;52.168;9.866;2023-02-21T14:42:16;100713.22;;;11.80;83.37
13934;BME280;7039;52.168;9.866;2023-02-21T14:44:55;100715.06;;;11.78;83.60
13934;BME280;7039;52.168;9.866;2023-02-21T14:47:39;100712.38;;;11.79;83.91
13934;BME280;7039;52.168;9.866;2023-02-21T14:50:16;100723.66;;;11.80;83.59
13934;BME280;7039;52.168;9.866;2023-02-21T14:53:04;100707.31;;;11.59;83.50
13934;BME280;7039;52.168;9.866;2023-02-21T14:55:57;100716.63;;;11.47;84.46
13934;BME280;7039;52.168;9.866;2023-02-21T14:58:54;100721.06;;;11.62;83.97
13934;BME280;7039;52.168;9.866;2023-02-21T15:01:40;100717.75;;;11.76;84.04
13934;BME280;7039;52.168;9.866;2023-02-21T15:04:16;100720.69;;;11.70;84.14
13934;BME280;7039;52.168;9.866;2023-02-21T15:06:54;100712.91;;;11.68;84.37
13934;BME280;7039;52.168;9.866;2023-02-21T15:09:22;100718.06;;;11.70;84.36
13934;BME280;7039;52.168;9.866;2023-02-21T15:11:50;100721.13;;;11.78;84.29
13934;BME280;7039;52.168;9.866;2023-02-21T15:14:19;100722.06;;;11.77;84.77
13934;BME280;7039;52.168;9.866;2023-02-21T15:16:52;100722.00;;;11.79;84.55
13934;BME280;7039;52.168;9.866;2023-02-21T15:19:22;100712.31;;;11.46;85.26
13934;BME280;7039;52.168;9.866;2023-02-21T15:22:14;100715.28;;;11.73;84.28
13934;BME280;7039;52.168;9.866;2023-02-21T15:24:41;100717.00;;;11.57;84.68
13934;BME280;7039;52.168;9.866;2023-02-21T15:27:22;100712.59;;;11.57;84.63
13934;BME280;7039;52.168;9.866;2023-02-21T15:30:03;100709.31;;;11.54;84.72
13934;BME280;7039;52.168;9.866;2023-02-21T15:32:30;100709.94;;;11.59;85.43
13934;BME280;7039;52.168;9.866;2023-02-21T15:34:57;100715.38;;;11.54;85.49
13934;BME280;7039;52.168;9.866;2023-02-21T15:37:27;100715.88;;;11.26;86.80
13934;BME280;7039;52.168;9.866;2023-02-21T15:39:55;100716.00;;;11.59;85.92
13934;BME280;7039;52.168;9.866;2023-02-21T15:42:26;100706.25;;;11.63;85.74
13934;BME280;7039;52.168;9.866;2023-02-21T15:44:57;100705.91;;;11.69;85.55
13934;BME280;7039;52.168;9.866;2023-02-21T15:47:25;100711.09;;;11.36;86.46
13934;BME280;7039;52.168;9.866;2023-02-21T15:49:59;100706.94;;;11.32;87.31
13934;BME280;7039;52.168;9.866;2023-02-21T15:52:28;100712.75;;;11.37;87.15
13934;BME280;7039;52.168;9.866;2023-02-21T15:55:13;100713.91;;;11.48;86.78
13934;BME280;7039;52.168;9.866;2023-02-21T15:57:56;100719.50;;;11.23;87.46
13934;BME280;7039;52.168;9.866;2023-02-21T16:00:28;100717.13;;;11.19;87.40
13934;BME280;7039;52.168;9.866;2023-02-21T16:03:36;100714.16;;;11.26;87.35
13934;BME280;7039;52.168;9.866;2023-02-21T16:06:22;100708.34;;;11.02;88.07
13934;BME280;7039;52.168;9.866;2023-02-21T16:41:26;100719.59;;;10.66;90.64
13934;BME280;7039;52.168;9.866;2023-02-21T16:50:00;100710.31;;;10.61;90.83
13934;BME280;7039;52.168;9.866;2023-02-21T16:55:22;100722.84;;;10.53;91.11
13934;BME280;7039;52.168;9.866;2023-02-21T17:38:21;100758.69;;;10.29;92.35
13934;BME280;7039;52.168;9.866;2023-02-21T17:45:47;100762.53;;;10.40;92.22
13934;BME280;7039;52.168;9.866;2023-02-21T17:48:14;100767.94;;;10.36;91.62
13934;BME280;7039;52.168;9.866;2023-02-21T17:50:47;100765.53;;;10.11;92.74
13934;BME280;7039;52.168;9.866;2023-02-21T17:53:31;100769.47;;;10.40;91.59
13934;BME280;7039;52.168;9.866;2023-02-21T17:56:03;100770.25;;;10.21;92.78
13934;BME280;7039;52.168;9.866;2023-02-21T17:59:00;100771.25;;;10.19;92.24
13934;BME280;7039;52.168;9.866;2023-02-21T18:02:21;100765.13;;;10.20;92.11
13934;BME280;7039;52.168;9.866;2023-02-21T18:05:15;100775.00;;;10.34;91.62
13934;BME280;7039;52.168;9.866;2023-02-21T18:07:47;100768.53;;;10.22;91.94
13934;BME280;7039;52.168;9.866;2023-02-21T18:10:42;100778.75;;;10.27;92.07
13934;BME280;7039;52.168;9.866;2023-02-21T18:16:56;100774.50;;;10.03;92.88
13934;BME280;7039;52.168;9.866;2023-02-21T18:23:08;100773.94;;;10.17;92.44
13934;BME280;7039;52.168;9.866;2023-02-21T18:25:50;100768.44;;;10.23;91.99
13934;BME280;7039;52.168;9.866;2023-02-21T18:28:36;100770.16;;;10.24;92.32
13934;BME280;7039;52.168;9.866;2023-02-21T18:31:05;100772.38;;;10.34;91.65
13934;BME280;7039;52.168;9.866;2023-02-21T18:33:48;100776.56;;;10.38;91.04
13934;BME280;7039;52.168;9.866;2023-02-21T18:39:29;100775.88;;;10.33;90.60
13934;BME280;7039;52.168;9.866;2023-02-21T18:42:09;100785.28;;;10.37;90.75
13934;BME280;7039;52.168;9.866;2023-02-21T18:44:43;100794.19;;;10.52;90.05
13934;BME280;7039;52.168;9.866;2023-02-21T18:47:33;100788.75;;;10.56;89.03
13934;BME280;7039;52.168;9.866;2023-02-21T18:50:01;100791.06;;;10.62;88.89
13934;BME280;7039;52.168;9.866;2023-02-21T18:52:30;100793.84;;;10.59;88.86
13934;BME280;7039;52.168;9.866;2023-02-21T18:54:57;100790.97;;;10.65;89.08
13934;BME280;7039;52.168;9.866;2023-02-21T18:57:30;100785.44;;;10.53;89.16
13934;BME280;7039;52.168;9.866;2023-02-21T19:00:03;100790.19;;;10.63;88.98
13934;BME280;7039;52.168;9.866;2023-02-21T19:02:50;100785.28;;;10.37;89.69
13934;BME280;7039;52.168;9.866;2023-02-21T19:05:31;100790.84;;;10.29;90.50
13934;BME280;7039;52.168;9.866;2023-02-21T19:08:00;100785.66;;;10.28;90.47
13934;BME280;7039;52.168;9.866;2023-02-21T19:10:45;100788.72;;;10.17;91.49
13934;BME280;7039;52.168;9.866;2023-02-21T19:19:00;100793.72;;;10.21;91.09
13934;BME280;7039;52.168;9.866;2023-02-21T19:21:30;100792.34;;;10.13;91.59
13934;BME280;7039;52.168;9.866;2023-02-21T19:23:59;100790.34;;;9.99;91.49
13934;BME280;7039;52.168;9.866;2023-02-21T19:26:27;100784.94;;;10.03;91.89
13934;BME280;7039;52.168;9.866;2023-02-21T19:28:54;100796.84;;;10.31;91.03
13934;BME280;7039;52.168;9.866;2023-02-21T19:31:21;100788.31;;;10.26;90.51
13934;BME280;7039;52.168;9.866;2023-02-21T19:33:49;100791.13;;;10.21;90.95
13934;BME280;7039;52.168;9.866;2023-02-21T19:36:22;100787.34;;;10.08;91.21
13934;BME280;7039;52.168;9.866;2023-02-21T19:38:51;100792.50;;;10.10;91.23
13934;BME280;7039;52.168;9.866;2023-02-21T19:41:22;100799.66;;;10.25;91.23
13934;BME280;7039;52.168;9.866;2023-02-21T19:43:52;100794.00;;;10.15;91.24
13934;BME280;7039;52.168;9.866;2023-02-21T19:46:41;100793.91;;;10.17;91.10
13934;BME280;7039;52.168;9.866;2023-02-21T19:49:15;100795.94;;;10.10;91.46
13934;BME280;7039;52.168;9.866;2023-02-21T19:55:17;100793.22;;;10.13;91.29
13934;BME280;7039;52.168;9.866;2023-02-21T19:57:54;100794.25;;;10.09;90.95
13934;BME280;7039;52.168;9.866;2023-02-21T20:00:39;100797.31;;;10.19;90.75
13934;BME280;7039;52.168;9.866;2023-02-21T20:03:27;100792.63;;;10.27;89.93
13934;BME280;7039;52.168;9.866;2023-02-21T20:06:02;100801.06;;;10.34;89.96
13934;BME280;7039;52.168;9.866;2023-02-21T20:08:57;100794.31;;;10.49;89.07
13934;BME280;7039;52.168;9.866;2023-02-21T20:11:42;100803.53;;;10.37;89.26
13934;BME280;7039;52.168;9.866;2023-02-21T20:14:23;100790.50;;;10.37;88.90
13934;BME280;7039;52.168;9.866;2023-02-21T20:17:02;100800.50;;;10.46;88.54
13934;BME280;7039;52.168;9.866;2023-02-21T20:23:02;100794.59;;;10.42;88.39
13934;BME280;7039;52.168;9.866;2023-02-21T20:25:42;100803.63;;;10.54;87.86
13934;BME280;7039;52.168;9.866;2023-02-21T20:28:17;100795.72;;;10.56;87.75
13934;BME280;7039;52.168;9.866;2023-02-21T20:30:54;100788.03;;;10.53;87.37
13934;BME280;7039;52.168;9.866;2023-02-21T20:33:44;100803.59;;;10.75;86.80
13934;BME280;7039;52.168;9.866;2023-02-21T20:36:26;100799.19;;;10.56;87.38
13934;BME280;7039;52.168;9.866;2023-02-21T20:42:47;100792.00;;;10.80;86.28
13934;BME280;7039;52.168;9.866;2023-02-21T20:45:18;100784.31;;;10.96;85.51
13934;BME280;7039;52.168;9.866;2023-02-21T20:48:21;100783.41;;;10.97;85.71
13934;BME280;7039;52.168;9.866;2023-02-21T20:54:23;100792.38;;;11.11;84.39
13934;BME280;7039;52.168;9.866;2023-02-21T20:57:19;100779.16;;;11.14;84.71
13934;BME280;7039;52.168;9.866;2023-02-21T20:59:46;100777.66;;;11.08;84.69
13934;BME280;7039;52.168;9.866;2023-02-21T21:02:13;100775.50;;;11.18;84.24
13934;BME280;7039;52.168;9.866;2023-02-21T21:04:41;100774.50;;;11.20;84.28
13934;BME280;7039;52.168;9.866;2023-02-21T21:07:13;100768.44;;;11.20;83.69
13934;BME280;7039;52.168;9.866;2023-02-21T21:09:44;100774.34;;;11.23;83.71
13934;BME280;7039;52.168;9.866;2023-02-21T21:12:16;100773.88;;;11.33;83.37
13934;BME280;7039;52.168;9.866;2023-02-21T21:14:49;100768.97;;;11.26;83.28
13934;BME280;7039;52.168;9.866;2023-02-21T21:17:19;100767.66;;;11.18;83.21
13934;BME280;7039;52.168;9.866;2023-02-21T21:19:47;100770.44;;;11.32;83.06
13934;BME280;7039;52.168;9.866;2023-02-21T21:22:17;100763.44;;;11.33;83.11
13934;BME280;7039;52.168;9.866;2023-02-21T21:24:48;100766.88;;;11.16;83.63
13934;BME280;7039;52.168;9.866;2023-02-21T21:27:15;100765.31;;;11.12;83.97
13934;BME280;7039;52.168;9.866;2023-02-21T21:29:58;100766.38;;;11.26;84.11
13934;BME280;7039;52.168;9.866;2023-02-21T21:32:25;100765.16;;;11.34;83.62
13934;BME280;7039;52.168;9.866;2023-02-21T21:34:54;100770.81;;;11.42;83.50
13934;BME280;7039;52.168;9.866;2023-02-21T21:37:23;100764.53;;;11.46;83.30
13934;BME280;7039;52.168;9.866;2023-02-21T21:39:51;100771.69;;;11.42;83.48
13934;BME280;7039;52.168;9.866;2023-02-21T21:42:22;100768.00;;;11.46;83.13
13934;BME280;7039;52.168;9.866;2023-02-21T21:44:50;100761.22;;;11.25;83.59
13934;BME280;7039;52.168;9.866;2023-02-21T21:47:20;100762.44;;;11.18;83.41
13934;BME280;7039;52.168;9.866;2023-02-21T21:49:48;100758.00;;;11.20;83.51
13934;BME280;7039;52.168;9.866;2023-02-21T21:52:16;100753.44;;;11.23;83.45
13934;BME280;7039;52.168;9.866;2023-02-21T21:54:46;100761.16;;;11.26;83.14
13934;BME280;7039;52.168;9.866;2023-02-21T21:57:17;100762.31;;;11.38;82.94
13934;BME280;7039;52.168;9.866;2023-02-21T21:59:47;100768.00;;;11.46;82.95
13934;BME280;7039;52.168;9.866;2023-02-21T22:02:14;100758.78;;;11.39;82.80
13934;BME280;7039;52.168;9.866;2023-02-21T22:04:43;100756.94;;;11.41;82.80
13934;BME280;7039;52.168;9.866;2023-02-21T22:10:30;100753.53;;;11.39;82.79
13934;BME280;7039;52.168;9.866;2023-02-21T22:12:57;100749.22;;;11.21;83.01
13934;BME280;7039;52.168;9.866;2023-02-21T22:15:28;100745.44;;;11.09;82.83
13934;BME280;7039;52.168;9.866;2023-02-21T22:17:55;100745.38;;;11.11;82.95
13934;BME280;7039;52.168;9.866;2023-02-21T22:20:27;100737.59;;;11.09;82.98
13934;BME280;7039;52.168;9.866;2023-02-21T22:22:56;100736.06;;;11.05;83.23
13934;BME280;7039;52.168;9.866;2023-02-21T22:25:24;100734.84;;;11.12;83.02
13934;BME280;7039;52.168;9.866;2023-02-21T22:27:55;100731.47;;;11.10;83.07
13934;BME280;7039;52.168;9.866;2023-02-21T22:30:23;100731.63;;;11.07;83.49
13934;BME280;7039;52.168;9.866;2023-02-21T22:32:50;100733.06;;;11.13;83.29
13934;BME280;7039;52.168;9.866;2023-02-21T22:35:18;100729.00;;;11.07;83.68
13934;BME280;7039;52.168;9.866;2023-02-21T22:37:50;100722.88;;;11.25;83.00
13934;BME280;7039;52.168;9.866;2023-02-21T22:40:19;100723.72;;;11.26;82.91
13934;BME280;7039;52.168;9.866;2023-02-21T22:42:49;100723.44;;;11.32;82.99
13934;BME280;7039;52.168;9.866;2023-02-21T22:45:17;100721.59;;;11.34;83.04
13934;BME280;7039;52.168;9.866;2023-02-21T22:47:50;100720.66;;;11.35;82.92
13934;BME280;7039;52.168;9.866;2023-02-21T22:50:23;100721.97;;;11.44;82.65
13934;BME280;7039;52.168;9.866;2023-02-21T22:52:53;100707.06;;;11.28;82.96
13934;BME280;7039;52.168;9.866;2023-02-21T22:55:24;100708.38;;;11.37;82.98
13934;BME280;7039;52.168;9.866;2023-02-21T22:57:53;100706.75;;;11.35;82.85
13934;BME280;7039;52.168;9.866;2023-02-21T23:00:23;100701.91;;;11.44;82.69